sensor_id;sensor_type;location;lat;lon;timestamp;pressure;altitude;pressure_sealevel;temperature;humidity
26937;BME280;14495;48.116;11.676;2022-07-23T00:00:15;95589.00;;;23.39;100.00
26937;BME280;14495;48.116;11.676;2022-07-23T00:02:40;95587.13;;;23.48;100.00
26937;BME280;14495;48.116;11.676;2022-07-23T00:05:06;95581.78;;;23.48;100.00
26937;BME280;14495;48.116;11.676;2022-07-23T00:07:31;95580.25;;;23.53;100.00
26937;BME280;14495;48.116;11.676;2022-07-23T00:09:56;95583.38;;;23.57;100.00
26937;BME280;14495;48.116;11.676;2022-07-23T00:12:22;95579.53;;;23.37;100.00
26937;BME280;14495;48.116;11.676;2022-07-23T00:14:47;95575.97;;;23.44;100.00
26937;BME280;14495;48.116;11.676;2022-07-23T00:17:12;95567.66;;;23.39;100.00
26937;BME280;14495;48.116;11.676;2022-07-23T00:19:38;95571.00;;;23.41;100.00
26937;BME280;14495;48.116;11.676;2022-07-23T00:22:03;95564.66;;;23.42;100.00
26937;BME280;14495;48.116;11.676;2022-07-23T00:24:29;95577.19;;;23.33;100.00
26937;BME280;14495;48.116;11.676;2022-07-23T00:26:54;95569.38;;;23.32;100.00
26937;BME280;14495;48.116;11.676;2022-07-23T00:29:19;95565.88;;;23.31;100.00
26937;BME280;14495;48.116;11.676;2022-07-23T00:31:45;95580.59;;;23.27;100.00
26937;BME280;14495;48.116;11.676;2022-07-23T00:34:10;95584.06;;;23.28;100.00
26937;BME280;14495;48.116;11.676;2022-07-23T00:36:35;95578.75;;;23.28;100.00
26937;BME280;14495;48.116;11.676;2022-07-23T00:39:01;95587.19;;;23.40;100.00
26937;BME280;14495;48.116;11.676;2022-07-23T00:41:26;95583.66;;;23.39;100.00
26937;BME280;14495;48.116;11.676;2022-07-23T00:43:52;95577.94;;;23.50;97.16
26937;BME280;14495;48.116;11.676;2022-07-23T00:46:20;95582.97;;;23.45;97.65
26937;BME280;14495;48.116;11.676;2022-07-23T00:48:46;95582.81;;;23.47;95.29
26937;BME280;14495;48.116;11.676;2022-07-23T00:51:11;95588.50;;;23.44;97.37
26937;BME280;14495;48.116;11.676;2022-07-23T00:53:37;95588.97;;;23.47;96.41
26937;BME280;14495;48.116;11.676;2022-07-23T00:56:02;95582.13;;;23.45;94.90
26937;BME280;14495;48.116;11.676;2022-07-23T00:58:28;95591.25;;;23.50;92.37
26937;BME280;14495;48.116;11.676;2022-07-23T01:00:53;95609.47;;;23.47;92.44
26937;BME280;14495;48.116;11.676;2022-07-23T01:03:18;95620.41;;;23.52;93.54
26937;BME280;14495;48.116;11.676;2022-07-23T01:05:44;95621.06;;;23.54;97.70
26937;BME280;14495;48.116;11.676;2022-07-23T01:08:10;95622.97;;;23.45;100.00
26937;BME280;14495;48.116;11.676;2022-07-23T01:10:36;95637.22;;;23.29;100.00
26937;BME280;14495;48.116;11.676;2022-07-23T01:13:04;95651.09;;;23.25;100.00
26937;BME280;14495;48.116;11.676;2022-07-23T01:15:31;95657.72;;;23.29;100.00
26937;BME280;14495;48.116;11.676;2022-07-23T01:17:56;95682.25;;;23.16;100.00
26937;BME280;14495;48.116;11.676;2022-07-23T01:20:21;95707.53;;;23.28;100.00
26937;BME280;14495;48.116;11.676;2022-07-23T01:22:47;95727.97;;;23.44;100.00
26937;BME280;14495;48.116;11.676;2022-07-23T01:25:13;95731.94;;;23.48;100.00
26937;BME280;14495;48.116;11.676;2022-07-23T01:27:39;95761.63;;;23.45;100.00
26937;BME280;14495;48.116;11.676;2022-07-23T01:30:05;95750.44;;;23.50;99.23
26937;BME280;14495;48.116;11.676;2022-07-23T01:32:30;95761.94;;;23.50;89.42
26937;BME280;14495;48.116;11.676;2022-07-23T01:34:56;95769.16;;;23.42;84.81
26937;BME280;14495;48.116;11.676;2022-07-23T01:37:21;95771.88;;;23.25;88.07
26937;BME280;14495;48.116;11.676;2022-07-23T01:39:46;95787.91;;;22.84;90.89
26937;BME280;14495;48.116;11.676;2022-07-23T01:42:12;95754.44;;;22.32;95.05
26937;BME280;14495;48.116;11.676;2022-07-23T01:44:37;95759.38;;;22.03;90.39
26937;BME280;14495;48.116;11.676;2022-07-23T01:47:02;95742.91;;;22.15;85.27
26937;BME280;14495;48.116;11.676;2022-07-23T01:49:28;95737.81;;;22.30;78.41
26937;BME280;14495;48.116;11.676;2022-07-23T01:51:53;95737.47;;;22.33;77.45
26937;BME280;14495;48.116;11.676;2022-07-23T01:54:33;95737.44;;;22.25;81.74
26937;BME280;14495;48.116;11.676;2022-07-23T01:56:59;95745.25;;;22.10;85.62
26937;BME280;14495;48.116;11.676;2022-07-23T01:59:25;95754.19;;;22.01;87.47
26937;BME280;14495;48.116;11.676;2022-07-23T02:01:51;95745.34;;;21.92;95.44
26937;BME280;14495;48.116;11.676;2022-07-23T02:04:18;95740.69;;;21.86;100.00
26937;BME280;14495;48.116;11.676;2022-07-23T02:06:43;95736.97;;;21.71;100.00
26937;BME280;14495;48.116;11.676;2022-07-23T02:09:08;95727.66;;;21.58;100.00
26937;BME280;14495;48.116;11.676;2022-07-23T02:11:34;95725.16;;;21.65;100.00
26937;BME280;14495;48.116;11.676;2022-07-23T02:13:59;95739.16;;;21.75;100.00
26937;BME280;14495;48.116;11.676;2022-07-23T02:16:25;95749.97;;;21.74;100.00
26937;BME280;14495;48.116;11.676;2022-07-23T02:18:50;95750.13;;;21.72;100.00
26937;BME280;14495;48.116;11.676;2022-07-23T02:21:15;95741.94;;;21.57;100.00
26937;BME280;14495;48.116;11.676;2022-07-23T02:23:41;95740.06;;;21.50;100.00
26937;BME280;14495;48.116;11.676;2022-07-23T02:26:06;95714.56;;;21.31;100.00
26937;BME280;14495;48.116;11.676;2022-07-23T02:28:31;95708.88;;;21.26;100.00
26937;BME280;14495;48.116;11.676;2022-07-23T02:30:57;95713.75;;;21.04;100.00
26937;BME280;14495;48.116;11.676;2022-07-23T02:33:22;95709.41;;;20.95;100.00
26937;BME280;14495;48.116;11.676;2022-07-23T02:35:48;95692.78;;;20.93;100.00
26937;BME280;14495;48.116;11.676;2022-07-23T02:38:13;95685.47;;;20.87;100.00
26937;BME280;14495;48.116;11.676;2022-07-23T02:40:38;95691.41;;;20.80;100.00
26937;BME280;14495;48.116;11.676;2022-07-23T02:43:04;95696.28;;;20.67;100.00
26937;BME280;14495;48.116;11.676;2022-07-23T02:45:29;95695.22;;;20.60;100.00
26937;BME280;14495;48.116;11.676;2022-07-23T02:47:54;95693.06;;;20.37;100.00
26937;BME280;14495;48.116;11.676;2022-07-23T02:50:20;95686.78;;;20.38;100.00
26937;BME280;14495;48.116;11.676;2022-07-23T02:52:45;95680.88;;;20.26;100.00
26937;BME280;14495;48.116;11.676;2022-07-23T02:55:10;95695.38;;;20.14;100.00
26937;BME280;14495;48.116;11.676;2022-07-23T02:57:36;95725.16;;;20.26;100.00
26937;BME280;14495;48.116;11.676;2022-07-23T03:00:03;95748.66;;;20.03;100.00
26937;BME280;14495;48.116;11.676;2022-07-23T03:02:29;95789.69;;;19.81;100.00
26937;BME280;14495;48.116;11.676;2022-07-23T03:04:54;95812.56;;;19.82;100.00
26937;BME280;14495;48.116;11.676;2022-07-23T03:07:20;95802.28;;;19.79;100.00
26937;BME280;14495;48.116;11.676;2022-07-23T03:09:45;95775.84;;;19.87;100.00
26937;BME280;14495;48.116;11.676;2022-07-23T03:12:11;95782.59;;;19.44;100.00
26937;BME280;14495;48.116;11.676;2022-07-23T03:14:36;95783.00;;;19.11;100.00
26937;BME280;14495;48.116;11.676;2022-07-23T03:17:01;95791.06;;;19.10;100.00
26937;BME280;14495;48.116;11.676;2022-07-23T03:19:26;95793.34;;;19.05;100.00
26937;BME280;14495;48.116;11.676;2022-07-23T03:21:52;95776.91;;;19.01;100.00
26937;BME280;14495;48.116;11.676;2022-07-23T03:24:17;95783.13;;;19.10;100.00
26937;BME280;14495;48.116;11.676;2022-07-23T03:26:43;95781.53;;;18.80;100.00
26937;BME280;14495;48.116;11.676;2022-07-23T03:29:09;95787.94;;;18.87;100.00
26937;BME280;14495;48.116;11.676;2022-07-23T03:31:34;95787.81;;;18.88;100.00
26937;BME280;14495;48.116;11.676;2022-07-23T03:34:00;95791.41;;;18.87;100.00
26937;BME280;14495;48.116;11.676;2022-07-23T03:36:25;95787.09;;;18.96;100.00
26937;BME280;14495;48.116;11.676;2022-07-23T03:38:51;95765.03;;;19.05;100.00
26937;BME280;14495;48.116;11.676;2022-07-23T03:41:18;95749.97;;;19.16;100.00
26937;BME280;14495;48.116;11.676;2022-07-23T03:43:43;95740.38;;;19.05;100.00
26937;BME280;14495;48.116;11.676;2022-07-23T03:46:08;95723.41;;;18.98;100.00
26937;BME280;14495;48.116;11.676;2022-07-23T03:48:34;95700.16;;;18.91;100.00
26937;BME280;14495;48.116;11.676;2022-07-23T03:51:00;95677.03;;;18.84;100.00
26937;BME280;14495;48.116;11.676;2022-07-23T03:53:25;95659.06;;;18.78;100.00
26937;BME280;14495;48.116;11.676;2022-07-23T03:55:50;95638.72;;;18.78;100.00
26937;BME280;14495;48.116;11.676;2022-07-23T03:58:16;95623.41;;;18.82;100.00
26937;BME280;14495;48.116;11.676;2022-07-23T04:00:41;95640.94;;;18.92;100.00
26937;BME280;14495;48.116;11.676;2022-07-23T04:03:06;95669.25;;;19.10;100.00
26937;BME280;14495;48.116;11.676;2022-07-23T04:05:32;95688.34;;;19.13;100.00
26937;BME280;14495;48.116;11.676;2022-07-23T04:07:57;95692.25;;;19.09;100.00
26937;BME280;14495;48.116;11.676;2022-07-23T04:10:22;95687.44;;;19.23;100.00
26937;BME280;14495;48.116;11.676;2022-07-23T04:12:48;95682.31;;;19.21;100.00
26937;BME280;14495;48.116;11.676;2022-07-23T04:15:13;95672.50;;;19.31;100.00
26937;BME280;14495;48.116;11.676;2022-07-23T04:17:38;95671.88;;;19.38;100.00
26937;BME280;14495;48.116;11.676;2022-07-23T04:20:04;95673.56;;;19.39;100.00
26937;BME280;14495;48.116;11.676;2022-07-23T04:22:30;95677.28;;;19.46;100.00
26937;BME280;14495;48.116;11.676;2022-07-23T04:24:55;95680.78;;;19.46;100.00
26937;BME280;14495;48.116;11.676;2022-07-23T04:27:20;95671.88;;;19.38;100.00
26937;BME280;14495;48.116;11.676;2022-07-23T04:29:45;95669.41;;;19.36;100.00
26937;BME280;14495;48.116;11.676;2022-07-23T04:32:11;95659.34;;;19.40;100.00
26937;BME280;14495;48.116;11.676;2022-07-23T04:34:36;95649.66;;;19.30;100.00
26937;BME280;14495;48.116;11.676;2022-07-23T04:37:01;95643.63;;;19.28;100.00
26937;BME280;14495;48.116;11.676;2022-07-23T04:39:27;95622.84;;;19.34;100.00
26937;BME280;14495;48.116;11.676;2022-07-23T04:41:52;95630.22;;;19.40;100.00
26937;BME280;14495;48.116;11.676;2022-07-23T04:44:17;95640.50;;;19.43;100.00
26937;BME280;14495;48.116;11.676;2022-07-23T04:46:43;95652.78;;;19.44;100.00
26937;BME280;14495;48.116;11.676;2022-07-23T04:49:08;95661.09;;;19.49;100.00
26937;BME280;14495;48.116;11.676;2022-07-23T04:51:33;95660.22;;;19.58;100.00
26937;BME280;14495;48.116;11.676;2022-07-23T04:53:59;95652.03;;;19.69;100.00
26937;BME280;14495;48.116;11.676;2022-07-23T04:56:24;95655.25;;;19.73;100.00
26937;BME280;14495;48.116;11.676;2022-07-23T04:58:49;95652.31;;;19.66;100.00
26937;BME280;14495;48.116;11.676;2022-07-23T05:01:14;95643.41;;;19.67;100.00
26937;BME280;14495;48.116;11.676;2022-07-23T05:03:40;95643.56;;;19.66;100.00
26937;BME280;14495;48.116;11.676;2022-07-23T05:06:05;95638.78;;;19.69;100.00
26937;BME280;14495;48.116;11.676;2022-07-23T05:08:31;95632.63;;;19.69;100.00
26937;BME280;14495;48.116;11.676;2022-07-23T05:10:56;95632.66;;;19.87;100.00
26937;BME280;14495;48.116;11.676;2022-07-23T05:13:22;95634.88;;;19.92;100.00
26937;BME280;14495;48.116;11.676;2022-07-23T05:15:47;95633.78;;;20.02;100.00
26937;BME280;14495;48.116;11.676;2022-07-23T05:18:13;95644.31;;;20.12;100.00
26937;BME280;14495;48.116;11.676;2022-07-23T05:20:38;95642.84;;;20.18;100.00
26937;BME280;14495;48.116;11.676;2022-07-23T05:23:04;95642.53;;;20.21;100.00
26937;BME280;14495;48.116;11.676;2022-07-23T05:25:29;95646.28;;;20.10;100.00
26937;BME280;14495;48.116;11.676;2022-07-23T05:27:54;95648.47;;;20.15;100.00
26937;BME280;14495;48.116;11.676;2022-07-23T05:30:20;95646.09;;;20.30;100.00
26937;BME280;14495;48.116;11.676;2022-07-23T05:32:45;95648.22;;;20.26;100.00
26937;BME280;14495;48.116;11.676;2022-07-23T05:35:11;95654.13;;;20.38;100.00
26937;BME280;14495;48.116;11.676;2022-07-23T05:37:36;95653.63;;;20.42;100.00
26937;BME280;14495;48.116;11.676;2022-07-23T05:40:06;95653.13;;;20.39;100.00
26937;BME280;14495;48.116;11.676;2022-07-23T05:42:37;95660.00;;;20.50;100.00
26937;BME280;14495;48.116;11.676;2022-07-23T05:45:03;95665.81;;;20.53;100.00
26937;BME280;14495;48.116;11.676;2022-07-23T05:47:28;95664.91;;;20.62;100.00
26937;BME280;14495;48.116;11.676;2022-07-23T05:49:54;95666.94;;;20.69;100.00
26937;BME280;14495;48.116;11.676;2022-07-23T05:52:19;95676.09;;;20.74;100.00
26937;BME280;14495;48.116;11.676;2022-07-23T05:54:45;95676.59;;;20.78;100.00
26937;BME280;14495;48.116;11.676;2022-07-23T05:57:10;95683.09;;;20.83;100.00
26937;BME280;14495;48.116;11.676;2022-07-23T05:59:35;95674.19;;;20.93;100.00
26937;BME280;14495;48.116;11.676;2022-07-23T06:02:01;95678.91;;;20.99;100.00
26937;BME280;14495;48.116;11.676;2022-07-23T06:04:26;95680.63;;;21.16;100.00
26937;BME280;14495;48.116;11.676;2022-07-23T06:06:51;95695.88;;;21.14;100.00
26937;BME280;14495;48.116;11.676;2022-07-23T06:09:17;95701.34;;;21.13;100.00
26937;BME280;14495;48.116;11.676;2022-07-23T06:11:43;95703.56;;;21.17;100.00
26937;BME280;14495;48.116;11.676;2022-07-23T06:14:08;95712.81;;;21.13;100.00
26937;BME280;14495;48.116;11.676;2022-07-23T06:16:34;95703.22;;;21.20;100.00
26937;BME280;14495;48.116;11.676;2022-07-23T06:18:59;95707.03;;;21.18;100.00
26937;BME280;14495;48.116;11.676;2022-07-23T06:21:25;95709.81;;;21.08;100.00
26937;BME280;14495;48.116;11.676;2022-07-23T06:23:50;95691.16;;;21.00;100.00
26937;BME280;14495;48.116;11.676;2022-07-23T06:26:15;95687.09;;;20.88;100.00
26937;BME280;14495;48.116;11.676;2022-07-23T06:28:41;95682.50;;;20.63;100.00
26937;BME280;14495;48.116;11.676;2022-07-23T06:31:06;95672.31;;;20.59;100.00
26937;BME280;14495;48.116;11.676;2022-07-23T06:33:31;95666.59;;;20.45;100.00
26937;BME280;14495;48.116;11.676;2022-07-23T06:35:57;95657.34;;;20.50;100.00
26937;BME280;14495;48.116;11.676;2022-07-23T06:38:22;95650.75;;;20.36;100.00
26937;BME280;14495;48.116;11.676;2022-07-23T06:40:47;95668.84;;;20.32;100.00
26937;BME280;14495;48.116;11.676;2022-07-23T06:43:13;95681.78;;;20.17;100.00
26937;BME280;14495;48.116;11.676;2022-07-23T06:45:38;95675.06;;;20.23;100.00
26937;BME280;14495;48.116;11.676;2022-07-23T06:48:03;95681.56;;;20.28;100.00
26937;BME280;14495;48.116;11.676;2022-07-23T06:50:29;95691.56;;;20.35;100.00
26937;BME280;14495;48.116;11.676;2022-07-23T06:52:54;95704.72;;;20.62;100.00
26937;BME280;14495;48.116;11.676;2022-07-23T06:55:20;95708.81;;;20.75;100.00
26937;BME280;14495;48.116;11.676;2022-07-23T06:57:45;95714.00;;;20.84;100.00
26937;BME280;14495;48.116;11.676;2022-07-23T07:00:11;95712.97;;;20.77;100.00
26937;BME280;14495;48.116;11.676;2022-07-23T07:02:36;95718.69;;;20.91;100.00
26937;BME280;14495;48.116;11.676;2022-07-23T07:05:02;95713.84;;;21.20;100.00
26937;BME280;14495;48.116;11.676;2022-07-23T07:07:27;95709.25;;;21.31;100.00
26937;BME280;14495;48.116;11.676;2022-07-23T07:09:53;95714.53;;;21.57;100.00
26937;BME280;14495;48.116;11.676;2022-07-23T07:12:18;95719.84;;;21.65;100.00
26937;BME280;14495;48.116;11.676;2022-07-23T07:14:44;95712.38;;;21.60;100.00
26937;BME280;14495;48.116;11.676;2022-07-23T07:17:09;95712.78;;;22.15;100.00
26937;BME280;14495;48.116;11.676;2022-07-23T07:19:36;95716.94;;;22.01;100.00
26937;BME280;14495;48.116;11.676;2022-07-23T07:22:01;95724.81;;;22.27;100.00
26937;BME280;14495;48.116;11.676;2022-07-23T07:24:27;95715.50;;;22.39;100.00
26937;BME280;14495;48.116;11.676;2022-07-23T07:26:52;95718.31;;;22.79;100.00
26937;BME280;14495;48.116;11.676;2022-07-23T07:29:17;95718.47;;;22.86;100.00
26937;BME280;14495;48.116;11.676;2022-07-23T07:31:43;95706.69;;;22.64;100.00
26937;BME280;14495;48.116;11.676;2022-07-23T07:34:08;95701.31;;;22.80;100.00
26937;BME280;14495;48.116;11.676;2022-07-23T07:36:34;95715.31;;;22.82;100.00
26937;BME280;14495;48.116;11.676;2022-07-23T07:39:03;95723.81;;;22.61;100.00
26937;BME280;14495;48.116;11.676;2022-07-23T07:41:28;95733.13;;;22.65;100.00
26937;BME280;14495;48.116;11.676;2022-07-23T07:43:53;95737.97;;;22.37;100.00
26937;BME280;14495;48.116;11.676;2022-07-23T07:46:19;95749.78;;;22.34;100.00
26937;BME280;14495;48.116;11.676;2022-07-23T07:48:44;95743.91;;;22.06;100.00
26937;BME280;14495;48.116;11.676;2022-07-23T07:51:09;95744.09;;;22.21;100.00
26937;BME280;14495;48.116;11.676;2022-07-23T07:53:35;95745.56;;;21.99;100.00
26937;BME280;14495;48.116;11.676;2022-07-23T07:56:00;95740.91;;;22.01;100.00
26937;BME280;14495;48.116;11.676;2022-07-23T07:58:26;95751.50;;;21.93;100.00
26937;BME280;14495;48.116;11.676;2022-07-23T08:00:52;95754.66;;;21.88;100.00
26937;BME280;14495;48.116;11.676;2022-07-23T08:03:17;95756.75;;;22.27;100.00
26937;BME280;14495;48.116;11.676;2022-07-23T08:05:42;95751.38;;;22.19;100.00
26937;BME280;14495;48.116;11.676;2022-07-23T08:08:08;95748.72;;;22.19;100.00
26937;BME280;14495;48.116;11.676;2022-07-23T08:10:35;95755.25;;;22.41;100.00
26937;BME280;14495;48.116;11.676;2022-07-23T08:13:00;95748.72;;;22.03;100.00
26937;BME280;14495;48.116;11.676;2022-07-23T08:15:27;95748.41;;;22.14;100.00
26937;BME280;14495;48.116;11.676;2022-07-23T08:17:53;95747.78;;;22.36;100.00
26937;BME280;14495;48.116;11.676;2022-07-23T08:20:20;95752.28;;;22.36;100.00
26937;BME280;14495;48.116;11.676;2022-07-23T08:22:53;95745.28;;;22.35;100.00
26937;BME280;14495;48.116;11.676;2022-07-23T08:25:21;95756.94;;;22.42;100.00
26937;BME280;14495;48.116;11.676;2022-07-23T08:27:48;95757.09;;;22.73;100.00
26937;BME280;14495;48.116;11.676;2022-07-23T08:30:14;95755.44;;;22.56;100.00
26937;BME280;14495;48.116;11.676;2022-07-23T08:32:53;95768.06;;;22.87;100.00
26937;BME280;14495;48.116;11.676;2022-07-23T08:35:37;95773.41;;;22.62;100.00
26937;BME280;14495;48.116;11.676;2022-07-23T08:38:05;95771.75;;;22.61;100.00
26937;BME280;14495;48.116;11.676;2022-07-23T08:40:32;95767.75;;;22.65;100.00
26937;BME280;14495;48.116;11.676;2022-07-23T08:42:58;95769.72;;;22.80;100.00
26937;BME280;14495;48.116;11.676;2022-07-23T08:45:25;95768.44;;;22.67;100.00
26937;BME280;14495;48.116;11.676;2022-07-23T08:47:54;95765.41;;;22.87;100.00
26937;BME280;14495;48.116;11.676;2022-07-23T08:50:20;95766.06;;;22.97;100.00
26937;BME280;14495;48.116;11.676;2022-07-23T08:52:48;95764.31;;;23.45;100.00
26937;BME280;14495;48.116;11.676;2022-07-23T08:55:18;95763.22;;;23.63;100.00
26937;BME280;14495;48.116;11.676;2022-07-23T08:57:47;95762.97;;;23.41;100.00
26937;BME280;14495;48.116;11.676;2022-07-23T09:00:13;95772.69;;;23.26;100.00
26937;BME280;14495;48.116;11.676;2022-07-23T09:02:41;95769.38;;;22.99;100.00
26937;BME280;14495;48.116;11.676;2022-07-23T09:05:09;95769.03;;;23.02;100.00
26937;BME280;14495;48.116;11.676;2022-07-23T09:07:36;95770.41;;;22.73;100.00
26937;BME280;14495;48.116;11.676;2022-07-23T09:10:10;95778.41;;;22.73;100.00
26937;BME280;14495;48.116;11.676;2022-07-23T09:12:37;95782.41;;;22.69;100.00
26937;BME280;14495;48.116;11.676;2022-07-23T09:15:05;95784.91;;;22.63;100.00
26937;BME280;14495;48.116;11.676;2022-07-23T09:17:38;95790.88;;;22.89;100.00
26937;BME280;14495;48.116;11.676;2022-07-23T09:20:14;95807.88;;;23.21;100.00
26937;BME280;14495;48.116;11.676;2022-07-23T09:22:45;95813.34;;;23.20;100.00
26937;BME280;14495;48.116;11.676;2022-07-23T09:25:16;95821.28;;;23.44;100.00
26937;BME280;14495;48.116;11.676;2022-07-23T09:27:55;95825.16;;;23.33;100.00
26937;BME280;14495;48.116;11.676;2022-07-23T09:30:24;95814.94;;;23.53;100.00
26937;BME280;14495;48.116;11.676;2022-07-23T09:33:16;95823.09;;;23.52;100.00
26937;BME280;14495;48.116;11.676;2022-07-23T09:35:53;95809.28;;;23.96;100.00
26937;BME280;14495;48.116;11.676;2022-07-23T09:38:20;95808.56;;;24.65;100.00
26937;BME280;14495;48.116;11.676;2022-07-23T09:40:46;95815.66;;;25.34;100.00
26937;BME280;14495;48.116;11.676;2022-07-23T09:43:13;95812.09;;;26.01;91.95
26937;BME280;14495;48.116;11.676;2022-07-23T09:45:50;95818.78;;;26.48;88.69
26937;BME280;14495;48.116;11.676;2022-07-23T09:48:16;95827.47;;;27.15;78.42
26937;BME280;14495;48.116;11.676;2022-07-23T09:50:43;95824.00;;;26.71;76.53
26937;BME280;14495;48.116;11.676;2022-07-23T09:53:09;95812.69;;;26.76;74.35
26937;BME280;14495;48.116;11.676;2022-07-23T09:55:36;95820.56;;;26.41;76.44
26937;BME280;14495;48.116;11.676;2022-07-23T09:58:08;95808.31;;;26.90;74.88
26937;BME280;14495;48.116;11.676;2022-07-23T10:00:40;95808.03;;;27.98;65.76
26937;BME280;14495;48.116;11.676;2022-07-23T10:03:06;95796.84;;;28.56;61.86
26937;BME280;14495;48.116;11.676;2022-07-23T10:05:32;95797.28;;;29.59;56.07
26937;BME280;14495;48.116;11.676;2022-07-23T10:08:01;95795.16;;;29.88;54.58
26937;BME280;14495;48.116;11.676;2022-07-23T10:10:27;95792.69;;;30.70;54.36
26937;BME280;14495;48.116;11.676;2022-07-23T10:12:54;95792.59;;;30.52;50.20
26937;BME280;14495;48.116;11.676;2022-07-23T10:15:23;95788.66;;;31.11;49.27
26937;BME280;14495;48.116;11.676;2022-07-23T10:17:48;95781.25;;;30.75;48.30
26937;BME280;14495;48.116;11.676;2022-07-23T10:20:14;95778.50;;;30.81;48.54
26937;BME280;14495;48.116;11.676;2022-07-23T10:22:46;95780.31;;;31.63;46.06
26937;BME280;14495;48.116;11.676;2022-07-23T10:25:41;95772.00;;;31.83;43.70
26937;BME280;14495;48.116;11.676;2022-07-23T10:28:17;95773.28;;;31.37;43.86
26937;BME280;14495;48.116;11.676;2022-07-23T10:36:44;95757.50;;;31.96;42.80
26937;BME280;14495;48.116;11.676;2022-07-23T10:39:32;95751.72;;;31.92;42.54
26937;BME280;14495;48.116;11.676;2022-07-23T10:42:14;95753.09;;;30.96;45.16
26937;BME280;14495;48.116;11.676;2022-07-23T10:44:45;95748.28;;;30.02;47.17
26937;BME280;14495;48.116;11.676;2022-07-23T10:47:11;95751.09;;;29.62;47.58
26937;BME280;14495;48.116;11.676;2022-07-23T10:50:22;95753.88;;;28.69;48.63
26937;BME280;14495;48.116;11.676;2022-07-23T10:58:03;95744.81;;;27.25;52.61
26937;BME280;14495;48.116;11.676;2022-07-23T11:00:33;95749.97;;;27.55;53.15
26937;BME280;14495;48.116;11.676;2022-07-23T11:03:02;95748.09;;;27.55;52.71
26937;BME280;14495;48.116;11.676;2022-07-23T11:05:43;95746.09;;;27.64;52.26
26937;BME280;14495;48.116;11.676;2022-07-23T11:08:09;95753.28;;;27.57;51.72
26937;BME280;14495;48.116;11.676;2022-07-23T11:10:48;95758.22;;;27.25;51.50
26937;BME280;14495;48.116;11.676;2022-07-23T11:13:38;95755.00;;;27.78;52.94
26937;BME280;14495;48.116;11.676;2022-07-23T11:16:13;95756.78;;;27.23;51.93
26937;BME280;14495;48.116;11.676;2022-07-23T11:32:06;95744.03;;;26.75;54.80
26937;BME280;14495;48.116;11.676;2022-07-23T11:34:40;95744.16;;;26.67;55.96
26937;BME280;14495;48.116;11.676;2022-07-23T11:37:08;95749.75;;;26.50;55.01
26937;BME280;14495;48.116;11.676;2022-07-23T11:39:34;95752.47;;;26.29;55.36
26937;BME280;14495;48.116;11.676;2022-07-23T11:42:01;95747.06;;;26.07;56.41
26937;BME280;14495;48.116;11.676;2022-07-23T11:44:32;95754.84;;;26.02;57.58
26937;BME280;14495;48.116;11.676;2022-07-23T11:47:03;95750.78;;;25.76;59.13
26937;BME280;14495;48.116;11.676;2022-07-23T11:49:29;95742.97;;;25.75;58.72
26937;BME280;14495;48.116;11.676;2022-07-23T11:52:14;95740.03;;;25.55;59.49
26937;BME280;14495;48.116;11.676;2022-07-23T11:57:16;95754.44;;;25.24;61.32
26937;BME280;14495;48.116;11.676;2022-07-23T11:59:42;95754.59;;;25.37;61.29
26937;BME280;14495;48.116;11.676;2022-07-23T12:02:08;95752.84;;;25.59;62.68
26937;BME280;14495;48.116;11.676;2022-07-23T12:04:38;95751.75;;;25.39;61.54
26937;BME280;14495;48.116;11.676;2022-07-23T12:07:03;95744.81;;;25.15;62.94
26937;BME280;14495;48.116;11.676;2022-07-23T12:09:29;95741.69;;;25.26;64.10
26937;BME280;14495;48.116;11.676;2022-07-23T12:12:00;95746.69;;;25.44;64.66
26937;BME280;14495;48.116;11.676;2022-07-23T12:14:26;95745.03;;;25.58;64.14
26937;BME280;14495;48.116;11.676;2022-07-23T12:17:10;95736.06;;;25.21;64.65
26937;BME280;14495;48.116;11.676;2022-07-23T12:19:36;95742.13;;;25.15;66.99
26937;BME280;14495;48.116;11.676;2022-07-23T12:22:01;95752.41;;;25.26;67.87
26937;BME280;14495;48.116;11.676;2022-07-23T12:24:27;95742.34;;;25.28;69.15
26937;BME280;14495;48.116;11.676;2022-07-23T12:27:11;95741.69;;;25.26;69.03
26937;BME280;14495;48.116;11.676;2022-07-23T12:29:37;95747.97;;;25.33;69.07
26937;BME280;14495;48.116;11.676;2022-07-23T12:32:25;95747.91;;;25.41;70.16
26937;BME280;14495;48.116;11.676;2022-07-23T12:35:06;95740.75;;;25.19;69.17
26937;BME280;14495;48.116;11.676;2022-07-23T12:37:37;95743.72;;;25.24;70.71
26937;BME280;14495;48.116;11.676;2022-07-23T12:40:26;95740.06;;;24.87;70.32
26937;BME280;14495;48.116;11.676;2022-07-23T12:42:55;95734.66;;;24.95;71.49
26937;BME280;14495;48.116;11.676;2022-07-23T12:45:21;95738.53;;;25.07;72.20
26937;BME280;14495;48.116;11.676;2022-07-23T12:47:58;95738.06;;;25.19;71.98
26937;BME280;14495;48.116;11.676;2022-07-23T12:50:57;95746.00;;;24.97;73.18
26937;BME280;14495;48.116;11.676;2022-07-23T12:53:25;95742.50;;;24.97;74.94
26937;BME280;14495;48.116;11.676;2022-07-23T12:56:01;95740.47;;;24.99;75.95
26937;BME280;14495;48.116;11.676;2022-07-23T12:58:26;95747.94;;;25.03;77.03
26937;BME280;14495;48.116;11.676;2022-07-23T13:01:01;95744.03;;;24.91;76.69
26937;BME280;14495;48.116;11.676;2022-07-23T13:03:34;95748.50;;;24.99;75.58
26937;BME280;14495;48.116;11.676;2022-07-23T13:06:00;95748.84;;;25.11;76.07
26937;BME280;14495;48.116;11.676;2022-07-23T13:08:27;95747.47;;;25.00;74.44
26937;BME280;14495;48.116;11.676;2022-07-23T13:10:53;95753.47;;;25.17;72.30